Time;durP1;ratioP1;P1;durP2;ratioP2;P2;SDS_P1;SDS_P2;PMS_P1;PMS_P2;Temp;Humidity;BMP_temperature;BMP_pressure;BME280_temperature;BME280_humidity;BME280_pressure;Samples;Min_cycle;Max_cycle;Signal;HPM_P1;HPM_P2
2022/01/23 12:02:35;;;;;;;0.10;0.10;;;;;;;;;;5002922;28;20279;-70
2022/01/23 12:05:20;;;;;;;0.10;0.10;;;;;;;;;;4962437;28;92911;-72
2022/01/23 12:08:07;;;;;;;1.27;1.27;;;;;;;;;;4983956;28;20211;-70
2022/01/23 12:10:50;;;;;;;0.10;0.10;;;;;;;;;;4983736;28;20505;-69
2022/01/23 12:13:54;;;;;;;0.10;0.10;;;;;;;;;;4984363;28;20470;-72
2022/01/23 12:16:26;;;;;;;0.10;0.10;;;;;;;;;;4983428;28;20290;-73
2022/01/23 12:19:14;;;;;;;0.10;0.10;;;;;;;;;;4983701;28;20497;-72
2022/01/23 12:21:40;;;;;;;0.10;0.10;;;;;;;;;;4985169;28;20207;-72
2022/01/23 12:24:09;;;;;;;0.20;0.20;;;;;;;;;;4987248;28;20489;-72
2022/01/23 12:26:35;;;;;;;0.13;0.13;;;;;;;;;;4987072;28;20203;-73
2022/01/23 12:29:10;;;;;;;0.10;0.10;;;;;;;;;;4986997;28;20213;-73
2022/01/23 12:31:37;;;;;;;0.10;0.10;;;;;;;;;;4987316;28;20478;-71
2022/01/23 12:34:06;;;;;;;0.10;0.10;;;;;;;;;;4946598;29;20196;-72
2022/01/23 12:36:34;;;;;;;0.10;0.10;;;;;;;;;;4946667;29;20295;-75
2022/01/23 12:39:16;;;;;;;0.10;0.10;;;;;;;;;;4946432;29;20214;-71
2022/01/23 12:41:53;;;;;;;0.10;0.10;;;;;;;;;;4946540;29;20235;-73
2022/01/23 12:44:33;;;;;;;0.10;0.10;;;;;;;;;;4946327;29;20226;-72
2022/01/23 12:47:01;;;;;;;0.10;0.10;;;;;;;;;;4946616;29;20368;-74
2022/01/23 12:49:30;;;;;;;0.10;0.10;;;;;;;;;;4946127;29;20276;-72
2022/01/23 12:52:12;;;;;;;0.10;0.10;;;;;;;;;;4961676;28;20213;-74
2022/01/23 12:54:51;;;;;;;0.20;0.20;;;;;;;;;;4986851;28;20521;-75
2022/01/23 12:57:21;;;;;;;0.17;0.17;;;;;;;;;;4986441;28;20280;-73
2022/01/23 12:59:51;;;;;;;0.10;0.10;;;;;;;;;;4986698;28;20254;-74
2022/01/23 13:02:19;;;;;;;0.10;0.10;;;;;;;;;;4986859;28;20482;-73
2022/01/23 13:04:48;;;;;;;0.10;0.10;;;;;;;;;;4986177;28;20277;-73
2022/01/23 13:07:23;;;;;;;0.20;0.20;;;;;;;;;;4986135;28;20224;-73
2022/01/23 13:09:55;;;;;;;0.10;0.10;;;;;;;;;;4986202;28;20273;-71
2022/01/23 13:12:47;;;;;;;0.10;0.10;;;;;;;;;;4986153;28;20247;-75
2022/01/23 13:18:11;;;;;;;0.10;0.10;;;;;;;;;;4986268;28;20197;-72
2022/01/23 13:26:43;;;;;;;0.10;0.10;;;;;;;;;;4986078;28;20202;-71
2022/01/23 13:32:05;;;;;;;0.10;0.10;;;;;;;;;;4985740;28;20533;-71
2022/01/23 13:34:36;;;;;;;0.10;0.10;;;;;;;;;;4985395;28;20256;-71
2022/01/23 13:37:05;;;;;;;0.10;0.10;;;;;;;;;;4985692;28;20222;-73
2022/01/23 13:39:36;;;;;;;0.13;0.13;;;;;;;;;;4985856;28;20210;-72
2022/01/23 13:42:12;;;;;;;0.10;0.10;;;;;;;;;;4985616;28;20206;-71
2022/01/23 13:52:57;;;;;;;0.17;0.17;;;;;;;;;;4983514;28;20193;-73
2022/01/23 14:00:58;;;;;;;0.10;0.10;;;;;;;;;;4985284;28;20194;-73
2022/01/23 14:03:25;;;;;;;0.10;0.10;;;;;;;;;;4985242;28;20452;-70
2022/01/23 14:05:52;;;;;;;0.10;0.10;;;;;;;;;;4985152;28;20452;-71
2022/01/23 14:08:21;;;;;;;0.10;0.10;;;;;;;;;;4985522;28;20350;-71
2022/01/23 14:10:53;;;;;;;0.10;0.10;;;;;;;;;;4985376;28;20492;-71
2022/01/23 14:13:20;;;;;;;0.10;0.10;;;;;;;;;;4985462;28;20226;-72
2022/01/23 14:15:47;;;;;;;0.10;0.10;;;;;;;;;;4985200;28;20298;-71
2022/01/23 14:18:17;;;;;;;0.10;0.10;;;;;;;;;;4985057;28;20214;-72
2022/01/23 14:20:54;;;;;;;0.10;0.10;;;;;;;;;;4985373;28;20214;-73
2022/01/23 14:23:22;;;;;;;0.20;0.20;;;;;;;;;;4984817;28;20199;-71
2022/01/23 14:25:50;;;;;;;0.20;0.20;;;;;;;;;;4984848;28;20535;-71
2022/01/23 14:28:20;;;;;;;0.17;0.17;;;;;;;;;;4984827;28;20206;-72
2022/01/23 14:30:47;;;;;;;0.17;0.17;;;;;;;;;;4984734;28;20282;-76
2022/01/23 14:33:16;;;;;;;0.13;0.13;;;;;;;;;;4984870;28;20568;-72
2022/01/23 14:35:43;;;;;;;0.17;0.17;;;;;;;;;;4985091;28;20262;-70
2022/01/23 14:38:10;;;;;;;0.10;0.10;;;;;;;;;;4984615;28;20208;-72
2022/01/23 14:40:38;;;;;;;0.10;0.10;;;;;;;;;;4984531;28;20213;-72
2022/01/23 14:43:07;;;;;;;0.20;0.20;;;;;;;;;;4984404;28;20214;-70
2022/01/23 14:45:35;;;;;;;0.10;0.10;;;;;;;;;;4984794;28;20216;-70
2022/01/23 14:48:02;;;;;;;0.10;0.10;;;;;;;;;;4984476;28;20319;-70
2022/01/23 14:50:31;;;;;;;0.10;0.10;;;;;;;;;;4984885;28;20418;-69
2022/01/23 14:52:58;;;;;;;0.10;0.10;;;;;;;;;;4984258;28;20211;-71
2022/01/23 14:55:25;;;;;;;0.10;0.10;;;;;;;;;;4984645;28;20207;-72
2022/01/23 14:58:00;;;;;;;0.10;0.10;;;;;;;;;;4984054;28;20306;-71
2022/01/23 15:00:27;;;;;;;0.17;0.17;;;;;;;;;;4984655;28;20253;-71
2022/01/23 15:02:55;;;;;;;0.10;0.10;;;;;;;;;;4984118;28;20214;-70
2022/01/23 15:05:21;;;;;;;0.10;0.10;;;;;;;;;;4983978;28;20262;-69
2022/01/23 15:07:48;;;;;;;0.10;0.10;;;;;;;;;;4984361;28;20202;-69
2022/01/23 15:10:15;;;;;;;0.17;0.17;;;;;;;;;;4984423;28;20557;-69
2022/01/23 15:12:41;;;;;;;0.10;0.10;;;;;;;;;;4984384;28;20402;-70
2022/01/23 15:15:13;;;;;;;0.20;0.20;;;;;;;;;;4983792;28;20206;-70
2022/01/23 15:17:39;;;;;;;0.10;0.10;;;;;;;;;;4984219;28;20226;-70
2022/01/23 15:20:07;;;;;;;0.10;0.10;;;;;;;;;;4984277;28;20210;-71
2022/01/23 15:22:33;;;;;;;0.10;0.10;;;;;;;;;;4983842;28;20210;-72
2022/01/23 15:25:00;;;;;;;0.10;0.10;;;;;;;;;;4984086;28;20228;-71
2022/01/23 15:27:27;;;;;;;0.10;0.10;;;;;;;;;;4984096;28;20202;-72
2022/01/23 15:29:53;;;;;;;0.10;0.10;;;;;;;;;;4983798;28;20206;-72
2022/01/23 15:32:21;;;;;;;0.10;0.10;;;;;;;;;;4983792;28;20206;-72
2022/01/23 15:34:49;;;;;;;0.10;0.10;;;;;;;;;;4984022;28;20210;-73
2022/01/23 15:37:16;;;;;;;0.10;0.10;;;;;;;;;;4983717;28;20227;-73
2022/01/23 15:39:42;;;;;;;0.10;0.10;;;;;;;;;;4983599;28;20210;-72
2022/01/23 15:42:09;;;;;;;0.10;0.10;;;;;;;;;;4983685;28;20210;-72
2022/01/23 15:44:36;;;;;;;0.10;0.10;;;;;;;;;;4984186;28;20211;-72
2022/01/23 15:47:02;;;;;;;0.10;0.10;;;;;;;;;;4983847;28;20563;-75
2022/01/23 15:49:30;;;;;;;0.10;0.10;;;;;;;;;;4983977;28;20318;-74
2022/01/23 15:51:57;;;;;;;0.10;0.10;;;;;;;;;;4983898;28;20206;-73
2022/01/23 15:54:23;;;;;;;0.10;0.10;;;;;;;;;;4984024;28;20233;-71
2022/01/23 15:56:52;;;;;;;0.10;0.10;;;;;;;;;;4986025;28;20250;-72
2022/01/23 15:59:19;;;;;;;0.10;0.10;;;;;;;;;;4987700;28;20455;-71
2022/01/23 16:01:49;;;;;;;0.10;0.10;;;;;;;;;;4987678;28;20208;-72
2022/01/23 16:04:15;;;;;;;0.10;0.10;;;;;;;;;;4987267;28;20217;-71
2022/01/23 16:06:43;;;;;;;0.10;0.10;;;;;;;;;;4987564;28;20393;-72
2022/01/23 16:09:10;;;;;;;0.10;0.10;;;;;;;;;;4987619;28;20248;-72
2022/01/23 16:11:36;;;;;;;0.10;0.10;;;;;;;;;;4987276;28;20222;-73
2022/01/23 16:14:06;;;;;;;0.10;0.10;;;;;;;;;;4987363;28;20259;-74
2022/01/23 16:16:33;;;;;;;0.13;0.13;;;;;;;;;;4987314;28;20227;-71
2022/01/23 16:19:00;;;;;;;0.10;0.10;;;;;;;;;;4987315;28;20210;-73
2022/01/23 16:21:27;;;;;;;0.20;0.20;;;;;;;;;;4987316;28;20264;-73
2022/01/23 16:23:55;;;;;;;0.10;0.10;;;;;;;;;;4987275;28;20431;-69
2022/01/23 16:26:21;;;;;;;0.20;0.20;;;;;;;;;;4987111;28;20221;-74
2022/01/23 16:28:48;;;;;;;0.20;0.20;;;;;;;;;;4987005;28;20237;-72
2022/01/23 16:31:15;;;;;;;0.10;0.10;;;;;;;;;;4987228;28;20245;-73
2022/01/23 16:33:41;;;;;;;0.10;0.10;;;;;;;;;;4986956;28;20274;-72
2022/01/23 16:36:08;;;;;;;0.10;0.10;;;;;;;;;;4987059;28;20210;-74
2022/01/23 16:38:35;;;;;;;0.10;0.10;;;;;;;;;;4986841;28;20256;-73
2022/01/23 16:41:04;;;;;;;0.10;0.10;;;;;;;;;;4987104;28;20270;-74
2022/01/23 16:43:31;;;;;;;0.10;0.10;;;;;;;;;;4986699;28;20225;-74
2022/01/23 16:45:59;;;;;;;0.10;0.10;;;;;;;;;;4986765;28;20285;-73
2022/01/23 16:48:25;;;;;;;0.10;0.10;;;;;;;;;;4986875;28;20272;-72
2022/01/23 16:50:52;;;;;;;0.10;0.10;;;;;;;;;;4986868;28;20436;-72
2022/01/23 16:53:19;;;;;;;0.10;0.10;;;;;;;;;;4986861;28;20229;-73
2022/01/23 16:55:45;;;;;;;0.10;0.10;;;;;;;;;;4986682;28;20225;-73
2022/01/23 16:58:13;;;;;;;0.10;0.10;;;;;;;;;;4986376;28;20226;-73
2022/01/23 17:00:40;;;;;;;0.13;0.13;;;;;;;;;;4986843;28;20214;-72
2022/01/23 17:03:06;;;;;;;0.10;0.10;;;;;;;;;;4986373;28;20257;-72
2022/01/23 17:05:33;;;;;;;0.10;0.10;;;;;;;;;;4986665;28;20298;-73
2022/01/23 17:07:59;;;;;;;0.10;0.10;;;;;;;;;;4984906;28;20202;-74
2022/01/23 17:10:26;;;;;;;0.10;0.10;;;;;;;;;;4986188;28;20203;-73
2022/01/23 17:12:53;;;;;;;0.10;0.10;;;;;;;;;;4986479;28;20278;-73
2022/01/23 17:15:21;;;;;;;0.10;0.10;;;;;;;;;;4986500;28;20533;-74
2022/01/23 17:17:47;;;;;;;0.10;0.10;;;;;;;;;;4985991;28;20234;-74
2022/01/23 17:20:14;;;;;;;0.10;0.10;;;;;;;;;;4986305;28;20464;-73
2022/01/23 17:22:40;;;;;;;0.17;0.17;;;;;;;;;;4986208;28;20449;-74
2022/01/23 17:25:07;;;;;;;0.20;0.20;;;;;;;;;;4986272;28;20245;-75
2022/01/23 17:27:34;;;;;;;0.10;0.10;;;;;;;;;;4985852;28;20234;-74
2022/01/23 17:30:01;;;;;;;0.10;0.10;;;;;;;;;;4986178;28;20212;-74
2022/01/23 17:32:29;;;;;;;0.10;0.10;;;;;;;;;;4986114;28;20261;-73
2022/01/23 17:34:55;;;;;;;0.10;0.10;;;;;;;;;;4985882;28;20254;-76
2022/01/23 17:37:25;;;;;;;0.10;0.10;;;;;;;;;;4985861;28;20347;-73
2022/01/23 17:39:51;;;;;;;0.10;0.10;;;;;;;;;;4985840;28;20282;-73
2022/01/23 17:42:19;;;;;;;0.10;0.10;;;;;;;;;;4985999;28;20215;-70
2022/01/23 17:44:47;;;;;;;0.10;0.10;;;;;;;;;;4985656;28;20211;-74
2022/01/23 17:47:33;;;;;;;0.10;0.10;;;;;;;;;;4985479;28;20214;-74
2022/01/23 17:50:16;;;;;;;0.10;0.10;;;;;;;;;;4985783;28;20213;-74
2022/01/23 17:52:44;;;;;;;0.27;0.27;;;;;;;;;;4985352;28;20200;-74
2022/01/23 17:55:11;;;;;;;0.10;0.10;;;;;;;;;;4985818;28;20216;-76
2022/01/23 17:57:37;;;;;;;0.10;0.10;;;;;;;;;;4985605;28;20257;-73
2022/01/23 18:00:05;;;;;;;0.10;0.10;;;;;;;;;;4985193;28;20206;-75
2022/01/23 18:02:32;;;;;;;0.10;0.10;;;;;;;;;;4985170;28;20269;-75
2022/01/23 18:04:59;;;;;;;0.10;0.10;;;;;;;;;;4985682;28;20237;-72
2022/01/23 18:07:27;;;;;;;0.10;0.10;;;;;;;;;;4985502;28;20474;-73
2022/01/23 18:09:57;;;;;;;0.10;0.10;;;;;;;;;;4985181;28;20215;-75
2022/01/23 18:12:27;;;;;;;0.10;0.10;;;;;;;;;;4985567;28;20365;-75
2022/01/23 18:14:56;;;;;;;0.10;0.10;;;;;;;;;;4985480;28;20245;-74
2022/01/23 18:17:24;;;;;;;0.10;0.10;;;;;;;;;;4985048;28;20229;-74
2022/01/23 18:19:50;;;;;;;0.10;0.10;;;;;;;;;;4985108;28;20230;-76
2022/01/23 18:22:18;;;;;;;0.10;0.10;;;;;;;;;;4984360;28;20207;-74
2022/01/23 18:24:48;;;;;;;0.10;0.10;;;;;;;;;;4984733;28;20213;-75
2022/01/23 18:27:14;;;;;;;0.10;0.10;;;;;;;;;;4985527;28;20374;-74
2022/01/23 18:29:44;;;;;;;0.10;0.10;;;;;;;;;;4967780;28;20206;-75
2022/01/23 18:32:10;;;;;;;0.10;0.10;;;;;;;;;;4985220;28;20217;-74
2022/01/23 18:34:40;;;;;;;0.10;0.10;;;;;;;;;;4985244;28;20210;-72
2022/01/23 18:37:07;;;;;;;0.20;0.20;;;;;;;;;;4984801;28;20282;-74
2022/01/23 18:39:34;;;;;;;1.47;1.47;;;;;;;;;;4984786;28;20214;-77
2022/01/23 18:42:02;;;;;;;0.10;0.10;;;;;;;;;;4985254;28;20336;-75
2022/01/23 18:44:29;;;;;;;0.20;0.20;;;;;;;;;;4984836;28;20253;-75
2022/01/23 18:46:59;;;;;;;0.20;0.20;;;;;;;;;;4984679;28;20206;-76
2022/01/23 18:49:25;;;;;;;0.20;0.20;;;;;;;;;;4984672;28;20461;-73
2022/01/23 18:51:55;;;;;;;0.10;0.10;;;;;;;;;;4984473;28;20214;-75
2022/01/23 18:54:28;;;;;;;0.10;0.10;;;;;;;;;;4984724;28;20285;-73
2022/01/23 18:57:01;;;;;;;0.10;0.10;;;;;;;;;;4984411;28;20202;-74
2022/01/23 18:59:36;;;;;;;0.10;0.10;;;;;;;;;;4984789;28;20294;-75
2022/01/23 19:02:03;;;;;;;0.10;0.10;;;;;;;;;;4984468;28;20212;-74
2022/01/23 19:04:38;;;;;;;0.20;0.20;;;;;;;;;;4984593;28;20229;-74
2022/01/23 19:07:16;;;;;;;0.10;0.10;;;;;;;;;;4984498;28;20226;-72
2022/01/23 19:09:45;;;;;;;0.20;0.20;;;;;;;;;;4984615;28;20210;-75
2022/01/23 19:12:12;;;;;;;0.10;0.10;;;;;;;;;;4984461;28;20286;-73
2022/01/23 19:14:40;;;;;;;0.10;0.10;;;;;;;;;;4984223;28;20207;-74
2022/01/23 19:17:07;;;;;;;0.20;0.20;;;;;;;;;;4984368;28;20249;-74
2022/01/23 19:19:34;;;;;;;0.10;0.10;;;;;;;;;;4984470;28;20214;-71
2022/01/23 19:22:01;;;;;;;0.10;0.10;;;;;;;;;;4984369;28;20254;-70
2022/01/23 19:24:27;;;;;;;0.10;0.10;;;;;;;;;;4984497;28;20222;-73
2022/01/23 19:26:55;;;;;;;0.10;0.10;;;;;;;;;;4983714;28;20381;-73
2022/01/23 19:29:29;;;;;;;0.10;0.10;;;;;;;;;;4984042;28;20261;-71
2022/01/23 19:31:58;;;;;;;0.10;0.10;;;;;;;;;;4983686;28;20357;-70
2022/01/23 19:34:25;;;;;;;0.20;0.20;;;;;;;;;;4984220;28;20206;-70
2022/01/23 19:36:52;;;;;;;0.10;0.10;;;;;;;;;;4984030;28;20392;-69
2022/01/23 19:39:24;;;;;;;0.10;0.10;;;;;;;;;;4983844;28;20248;-69
2022/01/23 19:42:00;;;;;;;0.10;0.10;;;;;;;;;;4983976;28;20228;-69
2022/01/23 19:44:32;;;;;;;0.10;0.10;;;;;;;;;;4984183;28;20323;-75
2022/01/23 19:47:17;;;;;;;5.90;5.70;;;;;;;;;;4983981;28;20217;-74
2022/01/23 19:49:46;;;;;;;0.10;0.10;;;;;;;;;;4984704;28;20506;-75
2022/01/23 19:52:15;;;;;;;0.10;0.10;;;;;;;;;;4983839;28;20233;-74
2022/01/23 19:54:43;;;;;;;0.20;0.20;;;;;;;;;;4984023;28;20210;-76
2022/01/23 19:57:11;;;;;;;0.10;0.10;;;;;;;;;;4984302;28;20282;-74
2022/01/23 19:59:39;;;;;;;0.10;0.10;;;;;;;;;;4983861;28;20226;-74
2022/01/23 20:02:09;;;;;;;0.10;0.10;;;;;;;;;;4983609;28;20277;-74
2022/01/23 20:04:36;;;;;;;0.10;0.10;;;;;;;;;;4982691;28;20233;-75
2022/01/23 20:07:05;;;;;;;0.20;0.20;;;;;;;;;;4983569;28;20258;-75
2022/01/23 20:09:38;;;;;;;0.10;0.10;;;;;;;;;;4984086;28;20274;-73
2022/01/23 20:14:51;;;;;;;0.10;0.10;;;;;;;;;;4983811;28;20314;-74
2022/01/23 20:17:24;;;;;;;0.10;0.10;;;;;;;;;;4983578;28;20412;-75
2022/01/23 20:19:52;;;;;;;0.10;0.10;;;;;;;;;;4983890;28;20379;-74
2022/01/23 20:22:20;;;;;;;0.10;0.10;;;;;;;;;;4983975;28;20202;-76
2022/01/23 20:24:52;;;;;;;0.17;0.17;;;;;;;;;;4983560;28;20286;-74
2022/01/23 20:27:19;;;;;;;0.10;0.10;;;;;;;;;;4966241;28;20205;-75
2022/01/23 20:29:46;;;;;;;0.20;0.20;;;;;;;;;;4983526;28;20253;-73
2022/01/23 20:32:14;;;;;;;0.20;0.20;;;;;;;;;;4983736;28;20217;-77
2022/01/23 20:34:45;;;;;;;0.20;0.20;;;;;;;;;;4983322;28;20254;-74
2022/01/23 20:37:15;;;;;;;0.10;0.10;;;;;;;;;;4983754;28;20250;-74
2022/01/23 20:39:42;;;;;;;0.10;0.10;;;;;;;;;;4983471;28;20215;-75
2022/01/23 20:42:10;;;;;;;0.10;0.10;;;;;;;;;;4984679;28;20206;-74
2022/01/23 20:44:41;;;;;;;0.10;0.10;;;;;;;;;;4986954;28;20210;-75
2022/01/23 20:47:09;;;;;;;0.10;0.10;;;;;;;;;;4987386;28;20238;-74
2022/01/23 20:49:36;;;;;;;0.10;0.10;;;;;;;;;;4986714;28;20202;-76
2022/01/23 20:52:13;;;;;;;0.10;0.10;;;;;;;;;;4986652;28;20531;-75
2022/01/23 20:54:41;;;;;;;0.10;0.10;;;;;;;;;;4969659;28;20202;-75
2022/01/23 20:57:08;;;;;;;0.20;0.20;;;;;;;;;;4986951;28;20212;-73
2022/01/23 20:59:35;;;;;;;0.20;0.20;;;;;;;;;;4986776;28;20397;-74
2022/01/23 21:02:03;;;;;;;0.13;0.13;;;;;;;;;;4986750;28;20218;-75
2022/01/23 21:04:30;;;;;;;0.10;0.10;;;;;;;;;;4986540;28;20510;-74
2022/01/23 21:06:57;;;;;;;0.20;0.20;;;;;;;;;;4986876;28;20274;-73
2022/01/23 21:09:26;;;;;;;0.10;0.10;;;;;;;;;;4986307;28;20206;-72
2022/01/23 21:11:53;;;;;;;0.10;0.10;;;;;;;;;;4986593;28;20216;-74
2022/01/23 21:14:28;;;;;;;0.10;0.10;;;;;;;;;;4986261;28;20206;-74
2022/01/23 21:17:15;;;;;;;0.10;0.10;;;;;;;;;;4986168;28;20210;-74
2022/01/23 21:31:51;;;;;;;0.10;0.10;;;;;;;;;;4985317;28;20236;-73
2022/01/23 21:39:40;;;;;;;0.10;0.10;;;;;;;;;;4986275;28;20287;-73
2022/01/23 21:42:08;;;;;;;0.10;0.10;;;;;;;;;;4986048;28;20253;-73
2022/01/23 21:44:35;;;;;;;0.10;0.10;;;;;;;;;;4985771;28;20211;-74
2022/01/23 21:47:02;;;;;;;0.10;0.10;;;;;;;;;;4986140;28;20454;-74
2022/01/23 21:49:28;;;;;;;0.20;0.20;;;;;;;;;;4986017;28;20371;-73
2022/01/23 21:51:55;;;;;;;0.20;0.20;;;;;;;;;;4985837;28;20213;-74
2022/01/23 21:54:22;;;;;;;0.20;0.20;;;;;;;;;;4985020;28;20207;-75
2022/01/23 21:56:49;;;;;;;0.10;0.10;;;;;;;;;;4984982;28;20266;-73
2022/01/23 21:59:16;;;;;;;0.20;0.20;;;;;;;;;;4985061;28;20223;-75
2022/01/23 22:01:43;;;;;;;0.10;0.10;;;;;;;;;;4985737;28;20269;-73
2022/01/23 22:04:10;;;;;;;0.10;0.10;;;;;;;;;;4985229;28;20281;-75
2022/01/23 22:06:36;;;;;;;0.20;0.20;;;;;;;;;;4985537;28;20415;-73
2022/01/23 22:09:10;;;;;;;0.10;0.10;;;;;;;;;;4985573;28;20274;-74
2022/01/23 22:11:59;;;;;;;0.10;0.10;;;;;;;;;;4985642;28;20206;-74
2022/01/23 22:17:11;;;;;;;0.17;0.17;;;;;;;;;;4985643;28;20254;-73
2022/01/23 22:19:37;;;;;;;0.10;0.10;;;;;;;;;;4985013;28;20255;-73
2022/01/23 22:22:15;;;;;;;0.10;0.10;;;;;;;;;;4985160;28;20424;-72
2022/01/23 22:27:25;;;;;;;0.10;0.10;;;;;;;;;;4985415;28;20281;-74
2022/01/23 22:29:53;;;;;;;0.10;0.10;;;;;;;;;;4985065;28;20273;-73
2022/01/23 22:32:19;;;;;;;1.17;1.17;;;;;;;;;;4984843;28;20519;-75
2022/01/23 22:34:46;;;;;;;0.20;0.20;;;;;;;;;;4985069;28;20427;-74
2022/01/23 22:37:13;;;;;;;0.10;0.10;;;;;;;;;;4985218;28;20205;-73
2022/01/23 22:39:40;;;;;;;0.10;0.10;;;;;;;;;;4984489;28;20284;-73
2022/01/23 22:42:09;;;;;;;0.20;0.20;;;;;;;;;;4985040;28;20207;-74
2022/01/23 22:44:47;;;;;;;0.10;0.10;;;;;;;;;;4984925;28;20400;-74
2022/01/23 22:47:15;;;;;;;0.10;0.10;;;;;;;;;;4984403;28;20404;-73
2022/01/23 22:49:42;;;;;;;0.10;0.10;;;;;;;;;;4985661;28;20418;-75
2022/01/23 22:52:08;;;;;;;0.13;0.13;;;;;;;;;;4984990;28;20215;-74
2022/01/23 22:54:34;;;;;;;0.10;0.10;;;;;;;;;;4984923;28;20216;-74
2022/01/23 22:57:01;;;;;;;0.10;0.10;;;;;;;;;;4984433;28;20213;-75
2022/01/23 22:59:29;;;;;;;0.10;0.10;;;;;;;;;;4984284;28;20289;-74
2022/01/23 23:01:58;;;;;;;0.10;0.10;;;;;;;;;;4984464;28;20209;-73
2022/01/23 23:04:26;;;;;;;0.10;0.10;;;;;;;;;;4984380;28;20405;-73
2022/01/23 23:06:53;;;;;;;0.10;0.10;;;;;;;;;;4983617;28;20539;-73
2022/01/23 23:09:20;;;;;;;0.10;0.10;;;;;;;;;;4984418;28;20228;-73
2022/01/23 23:11:46;;;;;;;0.10;0.10;;;;;;;;;;4983973;28;20216;-74
2022/01/23 23:14:14;;;;;;;0.10;0.10;;;;;;;;;;4984196;28;20206;-73
2022/01/23 23:16:45;;;;;;;0.10;0.10;;;;;;;;;;4984755;28;20218;-74
2022/01/23 23:19:12;;;;;;;0.10;0.10;;;;;;;;;;4984098;28;20483;-73
2022/01/23 23:21:43;;;;;;;0.10;0.10;;;;;;;;;;4983758;28;20278;-73
2022/01/23 23:24:10;;;;;;;0.13;0.13;;;;;;;;;;4983865;28;20270;-73
2022/01/23 23:26:37;;;;;;;0.10;0.10;;;;;;;;;;4984105;28;20414;-75
2022/01/23 23:29:04;;;;;;;0.10;0.10;;;;;;;;;;4983763;28;20243;-74
2022/01/23 23:31:30;;;;;;;0.10;0.10;;;;;;;;;;4984033;28;20418;-72
2022/01/23 23:33:57;;;;;;;0.10;0.10;;;;;;;;;;4983656;28;20206;-74
2022/01/23 23:36:24;;;;;;;0.10;0.10;;;;;;;;;;4983770;28;20295;-73
2022/01/23 23:38:51;;;;;;;0.10;0.10;;;;;;;;;;4983705;28;20238;-74
2022/01/23 23:41:23;;;;;;;0.20;0.20;;;;;;;;;;4983872;28;20245;-74
2022/01/23 23:44:01;;;;;;;0.10;0.10;;;;;;;;;;4983638;28;20201;-73
2022/01/23 23:46:32;;;;;;;0.10;0.10;;;;;;;;;;4983796;28;20268;-73
2022/01/23 23:49:05;;;;;;;0.10;0.10;;;;;;;;;;4983538;28;20238;-73
2022/01/23 23:51:34;;;;;;;0.10;0.10;;;;;;;;;;4983665;28;20210;-73
2022/01/23 23:54:02;;;;;;;0.10;0.10;;;;;;;;;;4983798;28;20507;-73
2022/01/23 23:56:28;;;;;;;0.10;0.10;;;;;;;;;;4983626;28;20214;-73
2022/01/23 23:58:55;;;;;;;0.10;0.10;;;;;;;;;;4983645;28;20297;-73
